sensor_id;sensor_type;location;lat;lon;timestamp;temperature;humidity
23251;DHT22;11794;49.730;10.088;2023-03-24T00:02:10;12.70;99.90
23251;DHT22;11794;49.730;10.088;2023-03-24T00:04:38;12.70;99.90
23251;DHT22;11794;49.730;10.088;2023-03-24T00:07:04;12.70;99.90
23251;DHT22;11794;49.730;10.088;2023-03-24T00:09:30;12.70;99.90
23251;DHT22;11794;49.730;10.088;2023-03-24T00:11:56;12.60;99.90
23251;DHT22;11794;49.730;10.088;2023-03-24T00:14:22;12.70;99.90
23251;DHT22;11794;49.730;10.088;2023-03-24T00:16:48;12.70;99.90
23251;DHT22;11794;49.730;10.088;2023-03-24T00:19:15;12.70;99.90
23251;DHT22;11794;49.730;10.088;2023-03-24T00:21:42;12.70;99.90
23251;DHT22;11794;49.730;10.088;2023-03-24T00:24:08;12.60;99.90
23251;DHT22;11794;49.730;10.088;2023-03-24T00:26:36;12.50;99.90
23251;DHT22;11794;49.730;10.088;2023-03-24T00:29:06;12.50;99.90
23251;DHT22;11794;49.730;10.088;2023-03-24T00:31:32;12.50;99.90
23251;DHT22;11794;49.730;10.088;2023-03-24T00:33:58;12.40;99.90
23251;DHT22;11794;49.730;10.088;2023-03-24T00:36:25;12.40;99.90
23251;DHT22;11794;49.730;10.088;2023-03-24T00:38:52;12.30;99.90
23251;DHT22;11794;49.730;10.088;2023-03-24T00:41:18;12.40;99.90
23251;DHT22;11794;49.730;10.088;2023-03-24T00:43:45;12.50;99.90
23251;DHT22;11794;49.730;10.088;2023-03-24T00:46:13;12.60;99.90
23251;DHT22;11794;49.730;10.088;2023-03-24T00:48:52;12.60;99.90
23251;DHT22;11794;49.730;10.088;2023-03-24T00:51:22;12.50;99.90
23251;DHT22;11794;49.730;10.088;2023-03-24T00:53:48;12.50;99.90
23251;DHT22;11794;49.730;10.088;2023-03-24T00:56:13;12.60;99.90
23251;DHT22;11794;49.730;10.088;2023-03-24T00:58:39;12.70;99.90
23251;DHT22;11794;49.730;10.088;2023-03-24T01:01:05;12.50;99.90
23251;DHT22;11794;49.730;10.088;2023-03-24T01:03:31;12.40;99.90
23251;DHT22;11794;49.730;10.088;2023-03-24T01:06:02;12.30;99.90
23251;DHT22;11794;49.730;10.088;2023-03-24T01:08:29;12.50;99.90
23251;DHT22;11794;49.730;10.088;2023-03-24T01:10:55;12.70;99.90
23251;DHT22;11794;49.730;10.088;2023-03-24T01:13:28;12.70;99.90
23251;DHT22;11794;49.730;10.088;2023-03-24T01:15:54;12.70;99.90
23251;DHT22;11794;49.730;10.088;2023-03-24T01:18:21;12.80;99.90
23251;DHT22;11794;49.730;10.088;2023-03-24T01:20:48;12.80;99.90
23251;DHT22;11794;49.730;10.088;2023-03-24T01:23:17;12.90;99.90
23251;DHT22;11794;49.730;10.088;2023-03-24T01:25:44;12.80;99.90
23251;DHT22;11794;49.730;10.088;2023-03-24T01:28:13;12.80;99.90
23251;DHT22;11794;49.730;10.088;2023-03-24T01:30:38;12.80;99.90
23251;DHT22;11794;49.730;10.088;2023-03-24T01:33:04;12.80;99.90
23251;DHT22;11794;49.730;10.088;2023-03-24T01:35:31;12.90;99.90
23251;DHT22;11794;49.730;10.088;2023-03-24T01:37:57;12.90;99.90
23251;DHT22;11794;49.730;10.088;2023-03-24T01:40:26;13.00;99.90
23251;DHT22;11794;49.730;10.088;2023-03-24T01:42:51;13.00;99.90
23251;DHT22;11794;49.730;10.088;2023-03-24T01:45:44;13.00;99.90
23251;DHT22;11794;49.730;10.088;2023-03-24T01:48:18;13.00;99.90
23251;DHT22;11794;49.730;10.088;2023-03-24T01:50:49;13.00;99.90
23251;DHT22;11794;49.730;10.088;2023-03-24T01:53:16;13.10;99.90
23251;DHT22;11794;49.730;10.088;2023-03-24T01:55:44;13.10;99.90
23251;DHT22;11794;49.730;10.088;2023-03-24T01:58:11;13.10;99.90
23251;DHT22;11794;49.730;10.088;2023-03-24T02:00:37;13.20;99.90
23251;DHT22;11794;49.730;10.088;2023-03-24T02:03:09;13.20;99.90
23251;DHT22;11794;49.730;10.088;2023-03-24T02:05:37;13.10;99.90
23251;DHT22;11794;49.730;10.088;2023-03-24T02:08:19;13.20;99.90
23251;DHT22;11794;49.730;10.088;2023-03-24T02:10:46;13.20;99.90
23251;DHT22;11794;49.730;10.088;2023-03-24T02:13:13;13.20;99.90
23251;DHT22;11794;49.730;10.088;2023-03-24T02:15:51;13.20;99.90
23251;DHT22;11794;49.730;10.088;2023-03-24T02:23:50;13.20;99.90
23251;DHT22;11794;49.730;10.088;2023-03-24T02:29:34;13.10;99.90
23251;DHT22;11794;49.730;10.088;2023-03-24T02:38:35;13.10;99.90
23251;DHT22;11794;49.730;10.088;2023-03-24T02:43:53;13.10;99.90
23251;DHT22;11794;49.730;10.088;2023-03-24T02:46:29;13.10;99.90
23251;DHT22;11794;49.730;10.088;2023-03-24T02:52:34;13.10;99.90
23251;DHT22;11794;49.730;10.088;2023-03-24T02:54:48;13.10;99.90
23251;DHT22;11794;49.730;10.088;2023-03-24T02:57:39;13.00;99.90
23251;DHT22;11794;49.730;10.088;2023-03-24T03:00:30;13.00;99.90
23251;DHT22;11794;49.730;10.088;2023-03-24T03:03:14;13.00;99.90
23251;DHT22;11794;49.730;10.088;2023-03-24T03:06:05;13.10;99.90
23251;DHT22;11794;49.730;10.088;2023-03-24T03:08:33;13.10;99.90
23251;DHT22;11794;49.730;10.088;2023-03-24T03:11:02;13.10;99.90
23251;DHT22;11794;49.730;10.088;2023-03-24T03:13:42;13.10;99.90
23251;DHT22;11794;49.730;10.088;2023-03-24T03:16:13;13.10;99.90
23251;DHT22;11794;49.730;10.088;2023-03-24T03:18:44;13.20;99.90
23251;DHT22;11794;49.730;10.088;2023-03-24T03:21:15;13.20;99.90
23251;DHT22;11794;49.730;10.088;2023-03-24T03:23:50;13.20;99.90
23251;DHT22;11794;49.730;10.088;2023-03-24T03:26:18;13.10;99.90
23251;DHT22;11794;49.730;10.088;2023-03-24T03:28:50;13.10;99.90
23251;DHT22;11794;49.730;10.088;2023-03-24T03:31:24;13.10;99.90
23251;DHT22;11794;49.730;10.088;2023-03-24T03:36:48;13.10;99.90
23251;DHT22;11794;49.730;10.088;2023-03-24T03:39:27;13.20;99.90
23251;DHT22;11794;49.730;10.088;2023-03-24T03:41:54;13.10;99.90
23251;DHT22;11794;49.730;10.088;2023-03-24T03:44:20;13.20;99.90
23251;DHT22;11794;49.730;10.088;2023-03-24T03:46:45;13.20;99.90
23251;DHT22;11794;49.730;10.088;2023-03-24T03:49:11;13.20;99.90
23251;DHT22;11794;49.730;10.088;2023-03-24T03:51:37;13.30;99.90
23251;DHT22;11794;49.730;10.088;2023-03-24T03:54:04;13.30;99.90
23251;DHT22;11794;49.730;10.088;2023-03-24T03:56:33;13.30;99.90
23251;DHT22;11794;49.730;10.088;2023-03-24T03:58:59;13.30;99.90
23251;DHT22;11794;49.730;10.088;2023-03-24T04:01:28;13.30;99.90
23251;DHT22;11794;49.730;10.088;2023-03-24T04:21:02;13.40;99.90
23251;DHT22;11794;49.730;10.088;2023-03-24T04:23:40;13.30;99.90
23251;DHT22;11794;49.730;10.088;2023-03-24T04:26:27;13.40;99.90
23251;DHT22;11794;49.730;10.088;2023-03-24T04:31:50;13.40;99.90
23251;DHT22;11794;49.730;10.088;2023-03-24T04:34:22;13.40;99.90
23251;DHT22;11794;49.730;10.088;2023-03-24T04:37:01;13.30;99.90
23251;DHT22;11794;49.730;10.088;2023-03-24T04:39:31;13.40;99.90
23251;DHT22;11794;49.730;10.088;2023-03-24T04:42:01;13.40;99.90
23251;DHT22;11794;49.730;10.088;2023-03-24T04:44:29;13.40;99.90
23251;DHT22;11794;49.730;10.088;2023-03-24T04:46:58;13.40;99.90
23251;DHT22;11794;49.730;10.088;2023-03-24T04:49:24;13.40;99.90
23251;DHT22;11794;49.730;10.088;2023-03-24T04:51:52;13.40;99.90
23251;DHT22;11794;49.730;10.088;2023-03-24T04:54:19;13.30;99.90
23251;DHT22;11794;49.730;10.088;2023-03-24T04:56:52;13.30;99.90
23251;DHT22;11794;49.730;10.088;2023-03-24T04:59:19;13.40;99.90
23251;DHT22;11794;49.730;10.088;2023-03-24T05:01:45;13.30;99.90
23251;DHT22;11794;49.730;10.088;2023-03-24T05:04:14;13.20;99.90
23251;DHT22;11794;49.730;10.088;2023-03-24T05:06:40;13.20;99.90
23251;DHT22;11794;49.730;10.088;2023-03-24T05:09:06;13.10;99.90
23251;DHT22;11794;49.730;10.088;2023-03-24T05:11:32;13.00;99.90
23251;DHT22;11794;49.730;10.088;2023-03-24T05:13:57;12.90;99.90
23251;DHT22;11794;49.730;10.088;2023-03-24T05:16:23;12.90;99.90
23251;DHT22;11794;49.730;10.088;2023-03-24T05:18:48;12.80;99.90
23251;DHT22;11794;49.730;10.088;2023-03-24T05:21:14;12.90;99.90
23251;DHT22;11794;49.730;10.088;2023-03-24T05:23:39;12.90;99.90
23251;DHT22;11794;49.730;10.088;2023-03-24T05:26:05;12.90;99.90
23251;DHT22;11794;49.730;10.088;2023-03-24T05:28:31;12.90;99.90
23251;DHT22;11794;49.730;10.088;2023-03-24T05:30:57;13.00;99.90
23251;DHT22;11794;49.730;10.088;2023-03-24T05:33:22;13.00;99.90
23251;DHT22;11794;49.730;10.088;2023-03-24T05:35:48;13.00;99.90
23251;DHT22;11794;49.730;10.088;2023-03-24T05:38:13;12.90;99.90
23251;DHT22;11794;49.730;10.088;2023-03-24T05:40:39;12.90;99.90
23251;DHT22;11794;49.730;10.088;2023-03-24T05:43:05;13.00;99.90
23251;DHT22;11794;49.730;10.088;2023-03-24T05:45:32;13.30;99.90
23251;DHT22;11794;49.730;10.088;2023-03-24T05:47:58;13.40;99.90
23251;DHT22;11794;49.730;10.088;2023-03-24T05:50:24;13.30;99.90
23251;DHT22;11794;49.730;10.088;2023-03-24T05:52:50;13.30;99.90
23251;DHT22;11794;49.730;10.088;2023-03-24T05:55:17;13.30;99.90
23251;DHT22;11794;49.730;10.088;2023-03-24T05:57:43;13.20;99.90
23251;DHT22;11794;49.730;10.088;2023-03-24T06:00:09;13.20;99.90
23251;DHT22;11794;49.730;10.088;2023-03-24T06:02:44;13.20;99.90
23251;DHT22;11794;49.730;10.088;2023-03-24T06:05:10;13.10;99.90
23251;DHT22;11794;49.730;10.088;2023-03-24T06:07:37;13.10;99.90
23251;DHT22;11794;49.730;10.088;2023-03-24T06:10:04;13.00;99.90
23251;DHT22;11794;49.730;10.088;2023-03-24T06:12:32;13.00;99.90
23251;DHT22;11794;49.730;10.088;2023-03-24T06:14:58;13.00;99.90
23251;DHT22;11794;49.730;10.088;2023-03-24T06:17:25;13.00;99.90
23251;DHT22;11794;49.730;10.088;2023-03-24T06:19:53;13.00;99.90
23251;DHT22;11794;49.730;10.088;2023-03-24T06:22:19;13.00;99.90
23251;DHT22;11794;49.730;10.088;2023-03-24T06:24:45;12.90;99.90
23251;DHT22;11794;49.730;10.088;2023-03-24T06:27:12;12.80;99.90
23251;DHT22;11794;49.730;10.088;2023-03-24T06:29:39;12.60;99.90
23251;DHT22;11794;49.730;10.088;2023-03-24T06:32:09;12.50;99.90
23251;DHT22;11794;49.730;10.088;2023-03-24T06:34:35;12.50;99.90
23251;DHT22;11794;49.730;10.088;2023-03-24T06:37:01;12.40;99.90
23251;DHT22;11794;49.730;10.088;2023-03-24T06:39:27;12.30;99.90
23251;DHT22;11794;49.730;10.088;2023-03-24T06:41:52;12.30;99.90
23251;DHT22;11794;49.730;10.088;2023-03-24T06:44:18;12.30;99.90
23251;DHT22;11794;49.730;10.088;2023-03-24T06:46:43;12.20;99.90
23251;DHT22;11794;49.730;10.088;2023-03-24T06:49:10;12.10;99.90
23251;DHT22;11794;49.730;10.088;2023-03-24T06:51:35;12.10;99.90
23251;DHT22;11794;49.730;10.088;2023-03-24T06:54:01;12.10;99.90
23251;DHT22;11794;49.730;10.088;2023-03-24T06:56:28;12.10;99.90
23251;DHT22;11794;49.730;10.088;2023-03-24T06:58:54;12.10;99.90
23251;DHT22;11794;49.730;10.088;2023-03-24T07:01:21;12.10;99.90
23251;DHT22;11794;49.730;10.088;2023-03-24T07:03:46;12.20;99.90
23251;DHT22;11794;49.730;10.088;2023-03-24T07:06:12;12.20;99.90
23251;DHT22;11794;49.730;10.088;2023-03-24T07:08:38;12.20;99.90
23251;DHT22;11794;49.730;10.088;2023-03-24T07:11:05;12.30;99.90
23251;DHT22;11794;49.730;10.088;2023-03-24T07:13:31;12.30;99.90
23251;DHT22;11794;49.730;10.088;2023-03-24T07:15:56;12.30;99.90
23251;DHT22;11794;49.730;10.088;2023-03-24T07:18:22;12.40;99.90
23251;DHT22;11794;49.730;10.088;2023-03-24T07:20:47;12.30;99.90
23251;DHT22;11794;49.730;10.088;2023-03-24T07:23:13;12.40;99.90
23251;DHT22;11794;49.730;10.088;2023-03-24T07:25:40;12.40;99.90
23251;DHT22;11794;49.730;10.088;2023-03-24T07:28:05;12.40;99.90
23251;DHT22;11794;49.730;10.088;2023-03-24T07:30:33;12.40;99.90
23251;DHT22;11794;49.730;10.088;2023-03-24T07:33:00;12.40;99.90
23251;DHT22;11794;49.730;10.088;2023-03-24T07:35:27;12.40;99.90
23251;DHT22;11794;49.730;10.088;2023-03-24T07:37:57;12.50;99.90
23251;DHT22;11794;49.730;10.088;2023-03-24T07:40:22;12.50;99.90
23251;DHT22;11794;49.730;10.088;2023-03-24T07:42:49;12.50;99.90
23251;DHT22;11794;49.730;10.088;2023-03-24T07:45:15;12.60;99.90
23251;DHT22;11794;49.730;10.088;2023-03-24T07:47:42;12.70;99.90
23251;DHT22;11794;49.730;10.088;2023-03-24T07:50:09;12.80;99.90
23251;DHT22;11794;49.730;10.088;2023-03-24T07:52:40;12.80;99.90
23251;DHT22;11794;49.730;10.088;2023-03-24T07:55:07;12.90;99.90
23251;DHT22;11794;49.730;10.088;2023-03-24T07:57:34;12.80;99.90
23251;DHT22;11794;49.730;10.088;2023-03-24T08:00:03;12.80;99.90
23251;DHT22;11794;49.730;10.088;2023-03-24T08:02:34;12.80;99.90
23251;DHT22;11794;49.730;10.088;2023-03-24T08:05:00;12.80;99.90
23251;DHT22;11794;49.730;10.088;2023-03-24T08:07:26;12.80;99.90
23251;DHT22;11794;49.730;10.088;2023-03-24T08:09:52;12.80;99.90
23251;DHT22;11794;49.730;10.088;2023-03-24T08:12:17;12.90;99.90
23251;DHT22;11794;49.730;10.088;2023-03-24T08:14:43;12.90;99.90
23251;DHT22;11794;49.730;10.088;2023-03-24T08:17:08;13.00;99.90
23251;DHT22;11794;49.730;10.088;2023-03-24T08:19:34;13.10;99.90
23251;DHT22;11794;49.730;10.088;2023-03-24T08:22:00;13.10;99.90
23251;DHT22;11794;49.730;10.088;2023-03-24T08:24:26;13.30;99.90
23251;DHT22;11794;49.730;10.088;2023-03-24T08:26:52;13.30;99.90
23251;DHT22;11794;49.730;10.088;2023-03-24T08:29:23;13.20;99.90
23251;DHT22;11794;49.730;10.088;2023-03-24T08:31:48;13.10;99.90
23251;DHT22;11794;49.730;10.088;2023-03-24T08:34:14;13.10;99.90
23251;DHT22;11794;49.730;10.088;2023-03-24T08:36:39;13.10;99.90
23251;DHT22;11794;49.730;10.088;2023-03-24T08:39:06;13.10;99.90
23251;DHT22;11794;49.730;10.088;2023-03-24T08:41:34;13.20;99.90
23251;DHT22;11794;49.730;10.088;2023-03-24T08:44:04;13.10;99.90
23251;DHT22;11794;49.730;10.088;2023-03-24T08:46:30;13.20;99.90
23251;DHT22;11794;49.730;10.088;2023-03-24T08:48:57;13.20;99.90
23251;DHT22;11794;49.730;10.088;2023-03-24T08:51:23;13.20;99.90
23251;DHT22;11794;49.730;10.088;2023-03-24T08:53:49;13.20;99.90
23251;DHT22;11794;49.730;10.088;2023-03-24T08:56:17;13.30;99.90
23251;DHT22;11794;49.730;10.088;2023-03-24T08:58:44;13.30;99.90
23251;DHT22;11794;49.730;10.088;2023-03-24T09:01:12;13.30;99.90
23251;DHT22;11794;49.730;10.088;2023-03-24T09:03:38;13.20;99.90
23251;DHT22;11794;49.730;10.088;2023-03-24T09:06:04;13.20;99.90
23251;DHT22;11794;49.730;10.088;2023-03-24T09:08:30;13.20;99.90
23251;DHT22;11794;49.730;10.088;2023-03-24T09:10:56;13.10;99.90
23251;DHT22;11794;49.730;10.088;2023-03-24T09:13:21;13.00;99.90
23251;DHT22;11794;49.730;10.088;2023-03-24T09:15:49;13.00;99.90
23251;DHT22;11794;49.730;10.088;2023-03-24T09:18:15;13.00;99.90
23251;DHT22;11794;49.730;10.088;2023-03-24T09:20:41;13.00;99.90
23251;DHT22;11794;49.730;10.088;2023-03-24T09:23:07;13.20;99.90
23251;DHT22;11794;49.730;10.088;2023-03-24T09:25:32;13.40;99.90
23251;DHT22;11794;49.730;10.088;2023-03-24T09:27:58;13.60;99.90
23251;DHT22;11794;49.730;10.088;2023-03-24T09:30:24;13.70;99.90
23251;DHT22;11794;49.730;10.088;2023-03-24T09:32:51;13.70;99.90
23251;DHT22;11794;49.730;10.088;2023-03-24T09:35:16;13.80;99.90
23251;DHT22;11794;49.730;10.088;2023-03-24T09:37:43;13.90;99.90
23251;DHT22;11794;49.730;10.088;2023-03-24T09:40:19;13.80;99.90
23251;DHT22;11794;49.730;10.088;2023-03-24T09:42:54;13.70;99.90
23251;DHT22;11794;49.730;10.088;2023-03-24T09:45:21;13.50;99.90
23251;DHT22;11794;49.730;10.088;2023-03-24T09:47:52;13.30;99.90
23251;DHT22;11794;49.730;10.088;2023-03-24T09:50:25;13.10;99.90
23251;DHT22;11794;49.730;10.088;2023-03-24T09:52:54;12.90;99.90
23251;DHT22;11794;49.730;10.088;2023-03-24T09:55:26;12.90;99.90
23251;DHT22;11794;49.730;10.088;2023-03-24T09:57:56;13.00;99.90
23251;DHT22;11794;49.730;10.088;2023-03-24T10:00:28;13.00;99.90
23251;DHT22;11794;49.730;10.088;2023-03-24T10:03:17;13.00;99.90
23251;DHT22;11794;49.730;10.088;2023-03-24T10:05:57;13.00;99.90
23251;DHT22;11794;49.730;10.088;2023-03-24T10:08:45;13.00;99.90
23251;DHT22;11794;49.730;10.088;2023-03-24T10:16:53;13.30;99.90
23251;DHT22;11794;49.730;10.088;2023-03-24T10:19:47;13.40;99.90
23251;DHT22;11794;49.730;10.088;2023-03-24T10:22:18;13.50;99.90
23251;DHT22;11794;49.730;10.088;2023-03-24T10:25:05;13.60;99.90
23251;DHT22;11794;49.730;10.088;2023-03-24T10:27:42;13.60;99.90
23251;DHT22;11794;49.730;10.088;2023-03-24T10:30:29;13.70;99.90
23251;DHT22;11794;49.730;10.088;2023-03-24T10:32:56;13.70;99.90
23251;DHT22;11794;49.730;10.088;2023-03-24T10:35:32;13.70;99.90
23251;DHT22;11794;49.730;10.088;2023-03-24T10:38:01;13.70;99.90
23251;DHT22;11794;49.730;10.088;2023-03-24T10:40:32;13.70;99.90
23251;DHT22;11794;49.730;10.088;2023-03-24T10:43:00;13.70;99.90
23251;DHT22;11794;49.730;10.088;2023-03-24T10:45:35;13.70;99.90
23251;DHT22;11794;49.730;10.088;2023-03-24T10:48:02;13.70;99.90
23251;DHT22;11794;49.730;10.088;2023-03-24T10:50:30;13.60;99.90
23251;DHT22;11794;49.730;10.088;2023-03-24T10:52:56;13.60;99.90
23251;DHT22;11794;49.730;10.088;2023-03-24T10:55:30;13.70;99.90
23251;DHT22;11794;49.730;10.088;2023-03-24T10:57:59;13.70;99.90
23251;DHT22;11794;49.730;10.088;2023-03-24T11:00:29;13.70;99.90
23251;DHT22;11794;49.730;10.088;2023-03-24T11:03:04;13.70;99.90
23251;DHT22;11794;49.730;10.088;2023-03-24T11:05:35;13.70;99.90
23251;DHT22;11794;49.730;10.088;2023-03-24T11:08:22;13.70;99.90
23251;DHT22;11794;49.730;10.088;2023-03-24T11:10:51;13.60;99.90
23251;DHT22;11794;49.730;10.088;2023-03-24T11:13:32;13.50;99.90
23251;DHT22;11794;49.730;10.088;2023-03-24T11:16:10;13.50;99.90
23251;DHT22;11794;49.730;10.088;2023-03-24T11:18:59;13.50;99.90
23251;DHT22;11794;49.730;10.088;2023-03-24T11:21:31;13.50;99.90
23251;DHT22;11794;49.730;10.088;2023-03-24T11:23:59;13.40;99.90
23251;DHT22;11794;49.730;10.088;2023-03-24T11:26:36;13.40;99.90
23251;DHT22;11794;49.730;10.088;2023-03-24T11:29:11;13.30;99.90
23251;DHT22;11794;49.730;10.088;2023-03-24T11:31:39;13.30;99.90
23251;DHT22;11794;49.730;10.088;2023-03-24T11:36:55;13.30;99.90
23251;DHT22;11794;49.730;10.088;2023-03-24T11:39:27;13.30;99.90
23251;DHT22;11794;49.730;10.088;2023-03-24T11:42:16;13.40;99.90
23251;DHT22;11794;49.730;10.088;2023-03-24T11:44:47;13.30;99.90
23251;DHT22;11794;49.730;10.088;2023-03-24T12:03:58;13.30;99.90
23251;DHT22;11794;49.730;10.088;2023-03-24T12:14:37;13.50;99.90
23251;DHT22;11794;49.730;10.088;2023-03-24T12:17:16;13.60;99.90
23251;DHT22;11794;49.730;10.088;2023-03-24T12:20:21;13.70;99.90
23251;DHT22;11794;49.730;10.088;2023-03-24T12:22:57;13.80;99.90
23251;DHT22;11794;49.730;10.088;2023-03-24T12:25:53;13.90;99.90
23251;DHT22;11794;49.730;10.088;2023-03-24T12:28:44;13.90;99.90
23251;DHT22;11794;49.730;10.088;2023-03-24T12:37:10;14.20;99.90
23251;DHT22;11794;49.730;10.088;2023-03-24T12:42:16;13.60;99.90
23251;DHT22;11794;49.730;10.088;2023-03-24T12:44:50;12.90;99.90
23251;DHT22;11794;49.730;10.088;2023-03-24T12:47:48;12.20;99.90
23251;DHT22;11794;49.730;10.088;2023-03-24T12:50:33;11.80;99.90
23251;DHT22;11794;49.730;10.088;2023-03-24T12:53:13;11.50;99.90
23251;DHT22;11794;49.730;10.088;2023-03-24T12:58:28;11.50;99.90
23251;DHT22;11794;49.730;10.088;2023-03-24T13:01:04;11.30;99.90
23251;DHT22;11794;49.730;10.088;2023-03-24T13:03:57;11.20;99.90
23251;DHT22;11794;49.730;10.088;2023-03-24T13:06:29;11.10;99.90
23251;DHT22;11794;49.730;10.088;2023-03-24T13:12:03;11.10;99.90
23251;DHT22;11794;49.730;10.088;2023-03-24T13:14:49;11.10;99.90
23251;DHT22;11794;49.730;10.088;2023-03-24T13:17:44;11.00;99.90
23251;DHT22;11794;49.730;10.088;2023-03-24T13:20:12;11.20;99.90
23251;DHT22;11794;49.730;10.088;2023-03-24T13:22:39;11.30;99.90
23251;DHT22;11794;49.730;10.088;2023-03-24T13:25:22;11.50;99.90
23251;DHT22;11794;49.730;10.088;2023-03-24T13:27:53;11.50;99.90
23251;DHT22;11794;49.730;10.088;2023-03-24T13:36:32;11.70;99.90
23251;DHT22;11794;49.730;10.088;2023-03-24T13:39:04;11.90;99.90
23251;DHT22;11794;49.730;10.088;2023-03-24T13:41:34;12.00;99.90
23251;DHT22;11794;49.730;10.088;2023-03-24T13:44:14;12.00;99.90
23251;DHT22;11794;49.730;10.088;2023-03-24T13:46:42;11.90;99.90
23251;DHT22;11794;49.730;10.088;2023-03-24T13:49:13;11.90;99.90
23251;DHT22;11794;49.730;10.088;2023-03-24T13:51:45;11.90;99.90
23251;DHT22;11794;49.730;10.088;2023-03-24T13:57:03;11.90;99.90
23251;DHT22;11794;49.730;10.088;2023-03-24T13:59:32;12.00;99.90
23251;DHT22;11794;49.730;10.088;2023-03-24T14:07:48;12.50;99.90
23251;DHT22;11794;49.730;10.088;2023-03-24T14:13:00;12.70;99.90
23251;DHT22;11794;49.730;10.088;2023-03-24T14:15:39;12.70;99.90
23251;DHT22;11794;49.730;10.088;2023-03-24T14:25:53;13.00;99.90
23251;DHT22;11794;49.730;10.088;2023-03-24T14:28:49;13.20;99.90
23251;DHT22;11794;49.730;10.088;2023-03-24T14:31:33;13.60;99.90
23251;DHT22;11794;49.730;10.088;2023-03-24T14:34:12;14.10;99.90
23251;DHT22;11794;49.730;10.088;2023-03-24T14:36:42;14.80;99.90
23251;DHT22;11794;49.730;10.088;2023-03-24T14:39:30;15.00;99.90
23251;DHT22;11794;49.730;10.088;2023-03-24T14:41:57;14.60;99.90
23251;DHT22;11794;49.730;10.088;2023-03-24T14:47:15;15.10;99.90
23251;DHT22;11794;49.730;10.088;2023-03-24T14:49:43;16.10;99.90
23251;DHT22;11794;49.730;10.088;2023-03-24T14:52:17;16.10;99.90
23251;DHT22;11794;49.730;10.088;2023-03-24T14:57:34;15.90;99.90
23251;DHT22;11794;49.730;10.088;2023-03-24T15:00:30;15.40;99.90
23251;DHT22;11794;49.730;10.088;2023-03-24T15:05:48;14.40;99.90
23251;DHT22;11794;49.730;10.088;2023-03-24T15:08:16;14.20;99.90
23251;DHT22;11794;49.730;10.088;2023-03-24T15:11:04;14.00;99.90
23251;DHT22;11794;49.730;10.088;2023-03-24T15:13:49;13.90;99.90
23251;DHT22;11794;49.730;10.088;2023-03-24T15:16:21;13.90;99.90
23251;DHT22;11794;49.730;10.088;2023-03-24T15:19:07;13.90;99.90
23251;DHT22;11794;49.730;10.088;2023-03-24T15:21:47;13.90;99.90
23251;DHT22;11794;49.730;10.088;2023-03-24T15:24:26;13.90;99.90
23251;DHT22;11794;49.730;10.088;2023-03-24T15:29:28;14.20;99.90
23251;DHT22;11794;49.730;10.088;2023-03-24T15:31:53;14.20;99.90
23251;DHT22;11794;49.730;10.088;2023-03-24T15:34:33;14.10;99.90
23251;DHT22;11794;49.730;10.088;2023-03-24T15:37:02;14.10;99.90
23251;DHT22;11794;49.730;10.088;2023-03-24T15:39:38;13.90;99.90
23251;DHT22;11794;49.730;10.088;2023-03-24T15:42:13;13.70;99.90
23251;DHT22;11794;49.730;10.088;2023-03-24T15:44:41;13.60;99.90
23251;DHT22;11794;49.730;10.088;2023-03-24T15:47:18;13.40;99.90
23251;DHT22;11794;49.730;10.088;2023-03-24T15:50:00;13.40;99.90
23251;DHT22;11794;49.730;10.088;2023-03-24T15:52:36;13.30;99.90
23251;DHT22;11794;49.730;10.088;2023-03-24T15:55:26;13.20;99.90
23251;DHT22;11794;49.730;10.088;2023-03-24T15:57:55;13.10;99.90
23251;DHT22;11794;49.730;10.088;2023-03-24T16:00:26;13.00;99.90
23251;DHT22;11794;49.730;10.088;2023-03-24T16:02:54;13.00;99.90
23251;DHT22;11794;49.730;10.088;2023-03-24T16:05:30;13.00;99.90
23251;DHT22;11794;49.730;10.088;2023-03-24T16:08:00;13.00;99.90
23251;DHT22;11794;49.730;10.088;2023-03-24T16:13:19;12.70;99.90
23251;DHT22;11794;49.730;10.088;2023-03-24T16:15:57;12.60;99.90
23251;DHT22;11794;49.730;10.088;2023-03-24T16:18:30;12.50;99.90
23251;DHT22;11794;49.730;10.088;2023-03-24T16:21:10;12.40;99.90
23251;DHT22;11794;49.730;10.088;2023-03-24T16:23:36;12.30;99.90
23251;DHT22;11794;49.730;10.088;2023-03-24T16:26:02;12.30;99.90
23251;DHT22;11794;49.730;10.088;2023-03-24T16:28:27;12.40;99.90
23251;DHT22;11794;49.730;10.088;2023-03-24T16:31:00;12.30;99.90
23251;DHT22;11794;49.730;10.088;2023-03-24T16:33:26;12.30;99.90
23251;DHT22;11794;49.730;10.088;2023-03-24T16:35:52;12.20;99.90
23251;DHT22;11794;49.730;10.088;2023-03-24T16:38:18;12.10;99.90
23251;DHT22;11794;49.730;10.088;2023-03-24T16:40:51;12.10;99.90
23251;DHT22;11794;49.730;10.088;2023-03-24T16:43:18;12.10;99.90
23251;DHT22;11794;49.730;10.088;2023-03-24T16:45:45;12.10;99.90
23251;DHT22;11794;49.730;10.088;2023-03-24T16:48:11;12.00;99.90
23251;DHT22;11794;49.730;10.088;2023-03-24T16:50:39;12.00;99.90
23251;DHT22;11794;49.730;10.088;2023-03-24T16:53:05;12.00;99.90
23251;DHT22;11794;49.730;10.088;2023-03-24T16:55:33;12.00;99.90
23251;DHT22;11794;49.730;10.088;2023-03-24T16:57:59;12.10;99.90
23251;DHT22;11794;49.730;10.088;2023-03-24T17:00:25;12.00;99.90
23251;DHT22;11794;49.730;10.088;2023-03-24T17:02:51;12.00;99.90
23251;DHT22;11794;49.730;10.088;2023-03-24T17:05:42;12.00;99.90
23251;DHT22;11794;49.730;10.088;2023-03-24T17:08:08;11.90;99.90
23251;DHT22;11794;49.730;10.088;2023-03-24T17:10:35;11.90;99.90
23251;DHT22;11794;49.730;10.088;2023-03-24T17:13:00;11.80;99.90
23251;DHT22;11794;49.730;10.088;2023-03-24T17:15:29;11.80;99.90
23251;DHT22;11794;49.730;10.088;2023-03-24T17:17:54;11.70;99.90
23251;DHT22;11794;49.730;10.088;2023-03-24T17:20:22;11.60;99.90
23251;DHT22;11794;49.730;10.088;2023-03-24T17:22:50;11.60;99.90
23251;DHT22;11794;49.730;10.088;2023-03-24T17:25:18;11.50;99.90
23251;DHT22;11794;49.730;10.088;2023-03-24T17:27:46;11.40;99.90
23251;DHT22;11794;49.730;10.088;2023-03-24T17:30:20;11.40;99.90
23251;DHT22;11794;49.730;10.088;2023-03-24T17:32:47;11.30;99.90
23251;DHT22;11794;49.730;10.088;2023-03-24T17:35:15;11.30;99.90
23251;DHT22;11794;49.730;10.088;2023-03-24T17:37:41;11.20;99.90
23251;DHT22;11794;49.730;10.088;2023-03-24T17:40:08;11.20;99.90
23251;DHT22;11794;49.730;10.088;2023-03-24T17:42:35;11.10;99.90
23251;DHT22;11794;49.730;10.088;2023-03-24T17:45:02;11.10;99.90
23251;DHT22;11794;49.730;10.088;2023-03-24T17:47:28;11.00;99.90